Monday, November 24, 2014
20:13 UTC
  |  Log In   |  Register Free
Airport Search:

De Kalb County Airport
(KGWB)

De Kalb County Airport Diagram
No Airport Diagram Available

FAA data valid effective November 13, 2014 - January 08, 2015 (unless otherwise noted).

 
 
 
 
 
 
 
 
 
 
 
 
 
 

Current Aviation Weather for De Kalb County Airport (KGWB)

The most recent METAR observation for KGWB was updated at: 2013
METAR Summary (Translated METAR)
KGWB
241955Z AUTO 22019G26KT 10SM OVC016 03/00 A2948 RMK AO2
KANQ
242015Z AUTO 24019KT 10SM OVC019 02/00 A2943 RMK
(20 nm NW from KGWB)
KFWA
241954Z 23024G35KT 10SM OVC018 03/00 A2952 RMK AO2 PK WND 23044/1904 SLP998 T00330000
(20.6 nm SW from KGWB)
TAF Summary (Translated TAF)
KFWA
(20.6 nm SW from KGWB)
241730Z 2418/2518 23036G44KT P6SM VCSH OVC017 FM250000 24020G31KT 6SM -SHSN OVC020 FM250600 25014G20KT P6SM OVC025
  Airport Weather Conditions for KGWB

 Current Weather at GWB
37° F
Overcast and Breezy
Southwest winds at 24.2 mph
GWB NOAA Radar

Pressure: 29.40 in
Humidity: 81%
Wind: from the Southwest at 24.2 gusting to 34.5 MPH (21 gusting to 30 KT)
Dew Point: 32.0°F
Visibility: 10.00 mi


Airport Weather Forecast for KGWB

Translated METAR and TAF for KGWB
Translated METAR for KGWB (2008 UTC 24 November 2014)
found at http://aviationweather.gov/adds/metars/
 
METAR text: KGWB 241955Z AUTO 22019G26KT 10SM OVC016 03/00 A2948 RMK AO2
Conditions at: KGWB (AUBURN DEKALB C , IN, US) observed 1955 UTC 24 November 2014
Temperature: 3.0°C (37°F)
Dewpoint: 0.0°C (32°F) [RH = 81%]
Pressure (altimeter): 29.48 inches Hg (998.4 mb)
Winds: from the SW (220 degrees) at 22 MPH (19 knots; 9.9 m/s)
gusting to 30 MPH (26 knots; 13.5 m/s)
Visibility: 10 or more miles (16+ km)
Ceiling: 1600 feet AGL
Clouds: overcast cloud deck at 1600 feet AGL
Weather: automated observation with no human augmentation;
there may or may not be significant weather present at this time
Translated TAF for KGWB

There is no translated TAF available for this airport

Find All Airport Services Find A Hotel Find A Rental Car Find A Golf Course Find A Restaurant $100 Hamburger



FBO's on the Field
FBO Company Facility Photos Services Transportation Aviation Fuel Prices: Prices include tax
Catering Weather Repair Courtesy Rental Type 100LL JetA JetA+ MOGAS 8087
 
Century Aviation

This FBO has not yet been rated
FS:Shell
Last Updated: Nov-01
Login to update fuel prices
SS:
Contact Century AviationMore FBO Information
 
Add another FBO Facility Photos Catering Weather Repair Courtesy Rental Type 100LL JetA JetA+ MOGAS 8087
Services Transportation Aviation Fuel Prices: Prices include tax


model-print
model-print
model-print
model-print